This is the latest recevied weather packets stored in our database for station/object BG5HLN-13. If no packets are shown the sender has not sent any weather packets the latest 10 day(s).
| Time | Temp. | Humidity | Pressure | Rain* | Wind** | Luminosity | Snow |
|---|---|---|---|---|---|---|---|
| 1778032983 | 23.89° C | 69% | 1013.5 hPa | 0 mm | - | - | - |
| 1778027583 | 22.22° C | 72% | 1013 hPa | 0 mm | - | - | - |
| 1778025783 | 21.67° C | 72% | 1013 hPa | 0 mm | - | - | - |
| 1778024583 | 21.67° C | 72% | 1012.9 hPa | 0 mm | - | - | - |
| 1778022779 | 21.11° C | 76% | 1012.8 hPa | 0 mm | - | - | - |
| 1778020980 | 21.11° C | 77% | 1012.6 hPa | 0 mm | - | - | - |
| 1778020382 | 21.11° C | 77% | 1012.7 hPa | 0 mm | - | - | - |
| 1778019782 | 20.56° C | 77% | 1012.7 hPa | 0 mm | - | - | - |
| 1778019179 | 20.56° C | 77% | 1012.6 hPa | 0 mm | - | - | - |
| 1778018582 | 20.56° C | 77% | 1012.4 hPa | 0 mm | - | - | - |
| 1778016181 | 20.56° C | 77% | 1012.1 hPa | 0 mm | - | - | - |
| 1778015579 | 20.56° C | 77% | 1012.1 hPa | 0 mm | - | - | - |
| 1778014982 | 20.56° C | 77% | 1012 hPa | 0 mm | - | - | - |
| 1778014382 | 20.56° C | 78% | 1011.9 hPa | 0 mm | - | - | - |
| 1778013181 | 20.56° C | 79% | 1011.8 hPa | 0 mm | - | - | - |
| 1778012582 | 20.56° C | 79% | 1011.8 hPa | 0 mm | - | - | - |
| 1778011979 | 20.56° C | 79% | 1011.8 hPa | 0 mm | - | - | - |
| 1778011382 | 20.56° C | 79% | 1011.7 hPa | 0 mm | - | - | - |
| 1778010781 | 20.56° C | 79% | 1011.6 hPa | 0 mm | - | - | - |
| 1778010179 | 21.11° C | 78% | 1011.7 hPa | 0 mm | - | - | - |
| 1778009582 | 21.11° C | 78% | 1011.8 hPa | 0 mm | - | - | - |
| 1778008981 | 21.11° C | 78% | 1011.8 hPa | 0 mm | - | - | - |
| 1778008382 | 21.11° C | 77% | 1012 hPa | 0 mm | - | - | - |
| 1778008379 | 21.11° C | 77% | 1012.1 hPa | 0 mm | - | - | - |
| 1778007781 | 21.11° C | 77% | 1012.1 hPa | 0 mm | - | - | - |
* Rain latest hour (hover to see other rain measurements)
** Current wind speed in m/s (hover to see current wind gust speed)